sensor_id;sensor_type;location;lat;lon;timestamp;pressure;altitude;pressure_sealevel;temperature;humidity
32875;BME280;40468;42.128;24.750;2023-02-05T00:00:26;99669.88;;;2.18;69.75
32875;BME280;40468;42.128;24.750;2023-02-05T00:01:58;99662.25;;;2.14;69.60
32875;BME280;40468;42.128;24.750;2023-02-05T00:03:29;99657.19;;;2.08;69.72
32875;BME280;40468;42.128;24.750;2023-02-05T00:05:01;99664.88;;;2.11;69.39
32875;BME280;40468;42.128;24.750;2023-02-05T00:06:34;99658.94;;;2.05;69.52
32875;BME280;40468;42.128;24.750;2023-02-05T00:08:05;99678.59;;;2.07;69.27
32875;BME280;40468;42.128;24.750;2023-02-05T00:09:37;99677.75;;;2.08;69.41
32875;BME280;40468;42.128;24.750;2023-02-05T00:11:10;99686.31;;;2.07;69.33
32875;BME280;40468;42.128;24.750;2023-02-05T00:12:42;99679.44;;;2.09;69.47
32875;BME280;40468;42.128;24.750;2023-02-05T00:14:14;99677.78;;;2.04;69.44
32875;BME280;40468;42.128;24.750;2023-02-05T00:15:46;99682.91;;;2.04;69.49
32875;BME280;40468;42.128;24.750;2023-02-05T00:17:18;99686.38;;;2.02;69.30
32875;BME280;40468;42.128;24.750;2023-02-05T00:18:49;99689.72;;;2.09;69.36
32875;BME280;40468;42.128;24.750;2023-02-05T00:20:21;99689.75;;;2.05;69.40
32875;BME280;40468;42.128;24.750;2023-02-05T00:21:54;99695.75;;;2.04;69.14
32875;BME280;40468;42.128;24.750;2023-02-05T00:23:25;99705.16;;;2.04;68.89
32875;BME280;40468;42.128;24.750;2023-02-05T00:24:57;99704.31;;;2.03;68.58
32875;BME280;40468;42.128;24.750;2023-02-05T00:26:29;99701.72;;;2.07;68.08
32875;BME280;40468;42.128;24.750;2023-02-05T00:28:01;99707.69;;;2.10;67.69
32875;BME280;40468;42.128;24.750;2023-02-05T00:29:33;99708.53;;;2.11;67.51
32875;BME280;40468;42.128;24.750;2023-02-05T00:31:07;99712.72;;;2.18;67.23
32875;BME280;40468;42.128;24.750;2023-02-05T00:32:39;99709.28;;;2.17;66.92
32875;BME280;40468;42.128;24.750;2023-02-05T00:34:11;99717.94;;;2.12;66.76
32875;BME280;40468;42.128;24.750;2023-02-05T00:35:43;99705.16;;;2.05;66.63
32875;BME280;40468;42.128;24.750;2023-02-05T00:37:16;99724.78;;;2.11;66.57
32875;BME280;40468;42.128;24.750;2023-02-05T00:38:49;99731.69;;;2.08;66.67
32875;BME280;40468;42.128;24.750;2023-02-05T00:40:21;99731.72;;;2.03;66.84
32875;BME280;40468;42.128;24.750;2023-02-05T00:41:53;99732.59;;;2.00;67.09
32875;BME280;40468;42.128;24.750;2023-02-05T00:43:25;99733.44;;;2.02;67.02
32875;BME280;40468;42.128;24.750;2023-02-05T00:44:57;99736.91;;;2.01;67.26
32875;BME280;40468;42.128;24.750;2023-02-05T00:46:29;99742.91;;;1.97;67.38
32875;BME280;40468;42.128;24.750;2023-02-05T00:48:01;99740.41;;;1.91;67.64
32875;BME280;40468;42.128;24.750;2023-02-05T00:49:33;99738.75;;;1.87;67.88
32875;BME280;40468;42.128;24.750;2023-02-05T00:51:04;99731.03;;;1.89;67.98
32875;BME280;40468;42.128;24.750;2023-02-05T00:52:37;99746.47;;;1.86;67.98
32875;BME280;40468;42.128;24.750;2023-02-05T00:54:09;99743.94;;;1.82;67.92
32875;BME280;40468;42.128;24.750;2023-02-05T00:55:40;99744.00;;;1.78;67.89
32875;BME280;40468;42.128;24.750;2023-02-05T00:57:12;99746.56;;;1.78;67.73
32875;BME280;40468;42.128;24.750;2023-02-05T00:58:43;99740.56;;;1.80;67.66
32875;BME280;40468;42.128;24.750;2023-02-05T01:00:17;99743.16;;;1.76;67.36
32875;BME280;40468;42.128;24.750;2023-02-05T01:01:49;99751.72;;;1.75;67.13
32875;BME280;40468;42.128;24.750;2023-02-05T01:03:21;99749.13;;;1.78;66.81
32875;BME280;40468;42.128;24.750;2023-02-05T01:04:53;99754.28;;;1.76;66.46
32875;BME280;40468;42.128;24.750;2023-02-05T01:06:25;99753.41;;;1.77;66.45
32875;BME280;40468;42.128;24.750;2023-02-05T01:07:58;99756.84;;;1.78;66.35
32875;BME280;40468;42.128;24.750;2023-02-05T01:09:30;99758.56;;;1.76;66.31
32875;BME280;40468;42.128;24.750;2023-02-05T01:11:05;99758.56;;;1.76;65.93
32875;BME280;40468;42.128;24.750;2023-02-05T01:12:37;99760.31;;;1.72;65.70
32875;BME280;40468;42.128;24.750;2023-02-05T01:14:09;99761.97;;;1.76;65.55
32875;BME280;40468;42.128;24.750;2023-02-05T01:15:42;99773.94;;;1.79;65.28
32875;BME280;40468;42.128;24.750;2023-02-05T01:17:14;99766.22;;;1.80;64.69
32875;BME280;40468;42.128;24.750;2023-02-05T01:18:46;99777.38;;;1.78;64.47
32875;BME280;40468;42.128;24.750;2023-02-05T01:20:18;99771.38;;;1.77;64.38
32875;BME280;40468;42.128;24.750;2023-02-05T01:21:51;99765.34;;;1.80;64.21
32875;BME280;40468;42.128;24.750;2023-02-05T01:23:24;99785.00;;;1.82;63.85
32875;BME280;40468;42.128;24.750;2023-02-05T01:24:55;99772.19;;;1.82;63.75
32875;BME280;40468;42.128;24.750;2023-02-05T01:26:26;99778.19;;;1.80;63.69
32875;BME280;40468;42.128;24.750;2023-02-05T01:27:58;99779.06;;;1.77;63.94
32875;BME280;40468;42.128;24.750;2023-02-05T01:29:30;99782.53;;;1.75;64.09
32875;BME280;40468;42.128;24.750;2023-02-05T01:31:02;99781.66;;;1.74;64.03
32875;BME280;40468;42.128;24.750;2023-02-05T01:32:34;99786.81;;;1.76;63.55
32875;BME280;40468;42.128;24.750;2023-02-05T01:34:06;99807.38;;;1.73;63.67
32875;BME280;40468;42.128;24.750;2023-02-05T01:35:39;99790.31;;;1.67;64.02
32875;BME280;40468;42.128;24.750;2023-02-05T01:37:10;99789.50;;;1.64;64.17
32875;BME280;40468;42.128;24.750;2023-02-05T01:38:43;99797.13;;;1.68;64.13
32875;BME280;40468;42.128;24.750;2023-02-05T01:40:15;99803.97;;;1.68;64.16
32875;BME280;40468;42.128;24.750;2023-02-05T01:41:47;99799.75;;;1.64;64.31
32875;BME280;40468;42.128;24.750;2023-02-05T01:43:19;99810.91;;;1.56;64.41
32875;BME280;40468;42.128;24.750;2023-02-05T01:47:14;99812.78;;;1.41;64.54
32875;BME280;40468;42.128;24.750;2023-02-05T01:48:50;99811.06;;;1.38;64.65
32875;BME280;40468;42.128;24.750;2023-02-05T01:50:27;99816.19;;;1.43;64.63
32875;BME280;40468;42.128;24.750;2023-02-05T01:52:03;99829.88;;;1.40;64.41
32875;BME280;40468;42.128;24.750;2023-02-05T01:53:37;99820.50;;;1.34;64.26
32875;BME280;40468;42.128;24.750;2023-02-05T01:55:11;99814.56;;;1.29;64.08
32875;BME280;40468;42.128;24.750;2023-02-05T01:56:47;99816.31;;;1.24;64.04
32875;BME280;40468;42.128;24.750;2023-02-05T01:58:21;99823.16;;;1.22;64.02
32875;BME280;40468;42.128;24.750;2023-02-05T01:59:53;99812.09;;;1.19;63.98
32875;BME280;40468;42.128;24.750;2023-02-05T02:01:26;99818.00;;;1.24;64.01
32875;BME280;40468;42.128;24.750;2023-02-05T02:02:58;99826.59;;;1.23;63.87
32875;BME280;40468;42.128;24.750;2023-02-05T02:04:36;99826.59;;;1.24;63.80
32875;BME280;40468;42.128;24.750;2023-02-05T02:06:08;99831.72;;;1.23;63.84
32875;BME280;40468;42.128;24.750;2023-02-05T02:07:41;99835.16;;;1.22;63.99
32875;BME280;40468;42.128;24.750;2023-02-05T02:09:13;99830.88;;;1.19;63.73
32875;BME280;40468;42.128;24.750;2023-02-05T02:10:47;99843.69;;;1.21;63.76
32875;BME280;40468;42.128;24.750;2023-02-05T02:12:22;99827.47;;;1.17;63.92
32875;BME280;40468;42.128;24.750;2023-02-05T02:13:58;99842.03;;;1.17;64.00
32875;BME280;40468;42.128;24.750;2023-02-05T02:15:31;99841.19;;;1.11;64.26
32875;BME280;40468;42.128;24.750;2023-02-05T02:17:04;99851.47;;;1.08;64.62
32875;BME280;40468;42.128;24.750;2023-02-05T02:18:37;99846.34;;;1.07;64.87
32875;BME280;40468;42.128;24.750;2023-02-05T02:20:11;99853.19;;;1.06;64.72
32875;BME280;40468;42.128;24.750;2023-02-05T02:22:10;99859.16;;;1.08;64.95
32875;BME280;40468;42.128;24.750;2023-02-05T02:25:55;99860.03;;;1.04;65.83
32875;BME280;40468;42.128;24.750;2023-02-05T02:27:47;99867.78;;;0.98;66.68
32875;BME280;40468;42.128;24.750;2023-02-05T02:29:26;99861.81;;;0.91;67.01
32875;BME280;40468;42.128;24.750;2023-02-05T02:31:03;99872.94;;;0.87;67.79
32875;BME280;40468;42.128;24.750;2023-02-05T02:32:39;99865.25;;;0.87;68.07
32875;BME280;40468;42.128;24.750;2023-02-05T02:34:16;99868.69;;;0.85;68.70
32875;BME280;40468;42.128;24.750;2023-02-05T02:35:54;99871.25;;;0.82;68.99
32875;BME280;40468;42.128;24.750;2023-02-05T02:37:33;99872.16;;;0.72;70.20
32875;BME280;40468;42.128;24.750;2023-02-05T02:39:09;99864.53;;;0.53;70.94
32875;BME280;40468;42.128;24.750;2023-02-05T02:40:45;99874.78;;;0.56;71.70
32875;BME280;40468;42.128;24.750;2023-02-05T02:42:23;99878.22;;;0.51;72.29
32875;BME280;40468;42.128;24.750;2023-02-05T02:43:57;99884.22;;;0.45;72.87
32875;BME280;40468;42.128;24.750;2023-02-05T02:45:33;99884.25;;;0.36;73.50
32875;BME280;40468;42.128;24.750;2023-02-05T02:47:10;99885.09;;;0.29;74.13
32875;BME280;40468;42.128;24.750;2023-02-05T02:48:44;99890.22;;;0.22;74.63
32875;BME280;40468;42.128;24.750;2023-02-05T02:50:21;99894.50;;;0.17;75.09
32875;BME280;40468;42.128;24.750;2023-02-05T02:51:54;99882.56;;;0.09;75.39
32875;BME280;40468;42.128;24.750;2023-02-05T02:53:32;99884.28;;;0.08;75.89
32875;BME280;40468;42.128;24.750;2023-02-05T02:55:08;99882.56;;;0.03;76.08
32875;BME280;40468;42.128;24.750;2023-02-05T02:56:40;99890.28;;;0.01;76.53
32875;BME280;40468;42.128;24.750;2023-02-05T02:58:15;99883.44;;;-0.06;77.26
32875;BME280;40468;42.128;24.750;2023-02-05T02:59:51;99878.31;;;-0.09;76.88
32875;BME280;40468;42.128;24.750;2023-02-05T03:01:25;99887.72;;;-0.08;77.25
32875;BME280;40468;42.128;24.750;2023-02-05T03:03:02;99880.03;;;-0.11;77.51
32875;BME280;40468;42.128;24.750;2023-02-05T03:04:37;99891.97;;;-0.13;77.75
32875;BME280;40468;42.128;24.750;2023-02-05T03:06:11;99889.41;;;-0.18;78.04
32875;BME280;40468;42.128;24.750;2023-02-05T03:07:48;99891.97;;;-0.19;78.10
32875;BME280;40468;42.128;24.750;2023-02-05T03:09:25;99897.97;;;-0.20;78.39
32875;BME280;40468;42.128;24.750;2023-02-05T03:11:02;99891.13;;;-0.25;78.40
32875;BME280;40468;42.128;24.750;2023-02-05T03:12:36;99886.00;;;-0.20;78.74
32875;BME280;40468;42.128;24.750;2023-02-05T03:14:07;99893.69;;;-0.23;78.75
32875;BME280;40468;42.128;24.750;2023-02-05T03:15:41;99891.97;;;-0.30;79.16
32875;BME280;40468;42.128;24.750;2023-02-05T03:17:13;99895.41;;;-0.27;79.39
32875;BME280;40468;42.128;24.750;2023-02-05T03:18:48;99905.63;;;-0.22;79.05
32875;BME280;40468;42.128;24.750;2023-02-05T03:20:24;99912.47;;;-0.22;79.42
32875;BME280;40468;42.128;24.750;2023-02-05T03:21:58;99906.47;;;-0.28;79.61
32875;BME280;40468;42.128;24.750;2023-02-05T03:23:31;99904.78;;;-0.26;79.89
32875;BME280;40468;42.128;24.750;2023-02-05T03:25:04;99899.66;;;-0.27;79.89
32875;BME280;40468;42.128;24.750;2023-02-05T03:26:36;99902.22;;;-0.24;80.01
32875;BME280;40468;42.128;24.750;2023-02-05T03:28:09;99898.81;;;-0.20;79.88
32875;BME280;40468;42.128;24.750;2023-02-05T03:29:41;99898.81;;;-0.20;80.09
32875;BME280;40468;42.128;24.750;2023-02-05T03:31:18;99891.13;;;-0.18;80.10
32875;BME280;40468;42.128;24.750;2023-02-05T03:32:58;99897.09;;;-0.21;80.41
32875;BME280;40468;42.128;24.750;2023-02-05T03:34:41;99903.06;;;-0.25;80.35
32875;BME280;40468;42.128;24.750;2023-02-05T03:36:24;99910.72;;;-0.33;80.99
32875;BME280;40468;42.128;24.750;2023-02-05T03:38:09;99900.50;;;-0.37;81.28
32875;BME280;40468;42.128;24.750;2023-02-05T03:39:55;99907.34;;;-0.41;81.38
32875;BME280;40468;42.128;24.750;2023-02-05T03:41:34;99920.13;;;-0.39;81.54
32875;BME280;40468;42.128;24.750;2023-02-05T03:43:31;99911.59;;;-0.40;81.69
32875;BME280;40468;42.128;24.750;2023-02-05T03:45:19;99913.28;;;-0.45;81.77
32875;BME280;40468;42.128;24.750;2023-02-05T03:46:58;99910.75;;;-0.47;82.08
32875;BME280;40468;42.128;24.750;2023-02-05T03:48:40;99915.00;;;-0.50;82.43
32875;BME280;40468;42.128;24.750;2023-02-05T03:50:20;99920.13;;;-0.50;82.43
32875;BME280;40468;42.128;24.750;2023-02-05T03:51:56;99903.03;;;-0.51;82.70
32875;BME280;40468;42.128;24.750;2023-02-05T03:53:36;99919.22;;;-0.54;82.69
32875;BME280;40468;42.128;24.750;2023-02-05T03:55:13;99921.81;;;-0.52;82.86
32875;BME280;40468;42.128;24.750;2023-02-05T03:56:52;99920.13;;;-0.53;82.83
32875;BME280;40468;42.128;24.750;2023-02-05T03:58:30;99918.38;;;-0.57;83.04
32875;BME280;40468;42.128;24.750;2023-02-05T04:00:04;99924.34;;;-0.58;83.52
32875;BME280;40468;42.128;24.750;2023-02-05T04:01:35;99916.66;;;-0.67;83.34
32875;BME280;40468;42.128;24.750;2023-02-05T04:03:09;99928.59;;;-0.66;83.59
32875;BME280;40468;42.128;24.750;2023-02-05T04:04:40;99928.59;;;-0.68;83.90
32875;BME280;40468;42.128;24.750;2023-02-05T04:06:12;99912.38;;;-0.79;84.09
32875;BME280;40468;42.128;24.750;2023-02-05T04:07:44;99933.69;;;-0.73;84.12
32875;BME280;40468;42.128;24.750;2023-02-05T04:09:16;99928.56;;;-0.76;84.48
32875;BME280;40468;42.128;24.750;2023-02-05T04:10:48;99938.78;;;-0.79;84.67
32875;BME280;40468;42.128;24.750;2023-02-05T04:12:20;99937.91;;;-0.84;85.01
32875;BME280;40468;42.128;24.750;2023-02-05T04:13:52;99938.75;;;-0.86;85.24
32875;BME280;40468;42.128;24.750;2023-02-05T04:15:24;99939.63;;;-0.83;85.19
32875;BME280;40468;42.128;24.750;2023-02-05T04:16:55;99932.81;;;-0.85;84.98
32875;BME280;40468;42.128;24.750;2023-02-05T04:18:28;99935.34;;;-0.87;85.29
32875;BME280;40468;42.128;24.750;2023-02-05T04:19:59;99942.16;;;-0.83;85.23
32875;BME280;40468;42.128;24.750;2023-02-05T04:21:31;99936.19;;;-0.89;85.17
32875;BME280;40468;42.128;24.750;2023-02-05T04:23:02;99954.09;;;-0.86;85.26
32875;BME280;40468;42.128;24.750;2023-02-05T04:24:34;99945.56;;;-0.90;85.31
32875;BME280;40468;42.128;24.750;2023-02-05T04:26:05;99960.91;;;-0.92;85.31
32875;BME280;40468;42.128;24.750;2023-02-05T04:27:36;99954.94;;;-0.92;85.57
32875;BME280;40468;42.128;24.750;2023-02-05T04:29:07;99951.50;;;-0.96;85.61
32875;BME280;40468;42.128;24.750;2023-02-05T04:30:39;99944.69;;;-0.95;85.63
32875;BME280;40468;42.128;24.750;2023-02-05T04:32:11;99959.19;;;-0.97;85.75
32875;BME280;40468;42.128;24.750;2023-02-05T04:33:44;99943.84;;;-1.03;85.86
32875;BME280;40468;42.128;24.750;2023-02-05T04:35:16;99956.63;;;-0.97;85.51
32875;BME280;40468;42.128;24.750;2023-02-05T04:36:48;99952.34;;;-1.01;85.53
32875;BME280;40468;42.128;24.750;2023-02-05T04:38:20;99958.28;;;-1.04;85.72
32875;BME280;40468;42.128;24.750;2023-02-05T04:39:51;99962.53;;;-1.09;85.87
32875;BME280;40468;42.128;24.750;2023-02-05T04:41:22;99963.38;;;-1.15;86.21
32875;BME280;40468;42.128;24.750;2023-02-05T04:42:54;99965.91;;;-1.18;86.23
32875;BME280;40468;42.128;24.750;2023-02-05T04:44:25;99972.72;;;-1.18;86.41
32875;BME280;40468;42.128;24.750;2023-02-05T04:45:57;99981.22;;;-1.19;86.21
32875;BME280;40468;42.128;24.750;2023-02-05T04:47:29;99976.97;;;-1.19;86.44
32875;BME280;40468;42.128;24.750;2023-02-05T04:49:01;99978.69;;;-1.16;86.43
32875;BME280;40468;42.128;24.750;2023-02-05T04:50:33;99975.28;;;-1.17;86.32
32875;BME280;40468;42.128;24.750;2023-02-05T04:52:04;99968.44;;;-1.21;86.45
32875;BME280;40468;42.128;24.750;2023-02-05T04:53:37;99968.47;;;-1.18;86.63
32875;BME280;40468;42.128;24.750;2023-02-05T04:55:08;99974.44;;;-1.17;86.47
32875;BME280;40468;42.128;24.750;2023-02-05T04:56:40;99976.13;;;-1.16;86.42
32875;BME280;40468;42.128;24.750;2023-02-05T04:58:11;99974.44;;;-1.17;86.46
32875;BME280;40468;42.128;24.750;2023-02-05T04:59:43;99985.50;;;-1.13;86.22
32875;BME280;40468;42.128;24.750;2023-02-05T05:01:15;99962.44;;;-1.26;86.33
32875;BME280;40468;42.128;24.750;2023-02-05T05:02:46;99981.25;;;-1.15;86.16
32875;BME280;40468;42.128;24.750;2023-02-05T05:04:20;99969.31;;;-1.17;86.20
32875;BME280;40468;42.128;24.750;2023-02-05T05:05:52;99979.53;;;-1.16;86.12
32875;BME280;40468;42.128;24.750;2023-02-05T05:07:22;99975.28;;;-1.13;85.85
32875;BME280;40468;42.128;24.750;2023-02-05T05:08:54;99987.22;;;-1.11;85.96
32875;BME280;40468;42.128;24.750;2023-02-05T05:10:25;99982.97;;;-1.10;85.94
32875;BME280;40468;42.128;24.750;2023-02-05T05:11:57;99978.72;;;-1.11;85.84
32875;BME280;40468;42.128;24.750;2023-02-05T05:13:31;99984.66;;;-1.12;85.78
32875;BME280;40468;42.128;24.750;2023-02-05T05:15:04;99988.94;;;-1.11;85.81
32875;BME280;40468;42.128;24.750;2023-02-05T05:16:36;99993.22;;;-1.09;85.63
32875;BME280;40468;42.128;24.750;2023-02-05T05:18:08;99987.25;;;-1.08;85.44
32875;BME280;40468;42.128;24.750;2023-02-05T05:19:41;99993.22;;;-1.04;85.63
32875;BME280;40468;42.128;24.750;2023-02-05T05:21:12;99996.63;;;-1.01;85.40
32875;BME280;40468;42.128;24.750;2023-02-05T05:22:44;99998.38;;;-1.00;85.18
32875;BME280;40468;42.128;24.750;2023-02-05T05:24:15;100006.88;;;-1.02;85.00
32875;BME280;40468;42.128;24.750;2023-02-05T05:25:47;100011.16;;;-0.98;85.00
32875;BME280;40468;42.128;24.750;2023-02-05T05:27:19;100006.88;;;-0.98;84.97
32875;BME280;40468;42.128;24.750;2023-02-05T05:28:52;100009.44;;;-0.99;84.85
32875;BME280;40468;42.128;24.750;2023-02-05T05:30:24;100009.41;;;-1.01;84.95
32875;BME280;40468;42.128;24.750;2023-02-05T05:31:56;100012.00;;;-0.99;84.89
32875;BME280;40468;42.128;24.750;2023-02-05T05:33:28;100007.75;;;-0.97;84.65
32875;BME280;40468;42.128;24.750;2023-02-05T05:35:01;100007.72;;;-1.02;84.70
32875;BME280;40468;42.128;24.750;2023-02-05T05:36:33;100009.47;;;-0.95;84.44
32875;BME280;40468;42.128;24.750;2023-02-05T05:38:05;100018.84;;;-0.94;84.54
32875;BME280;40468;42.128;24.750;2023-02-05T05:39:37;100027.38;;;-0.93;84.25
32875;BME280;40468;42.128;24.750;2023-02-05T05:41:26;100027.38;;;-0.93;84.08
32875;BME280;40468;42.128;24.750;2023-02-05T05:43:18;100027.34;;;-0.99;83.68
32875;BME280;40468;42.128;24.750;2023-02-05T05:45:09;100035.88;;;-0.96;83.68
32875;BME280;40468;42.128;24.750;2023-02-05T05:46:41;100038.44;;;-0.94;83.60
32875;BME280;40468;42.128;24.750;2023-02-05T05:48:13;100033.34;;;-0.89;83.53
32875;BME280;40468;42.128;24.750;2023-02-05T05:49:44;100042.75;;;-0.85;83.38
32875;BME280;40468;42.128;24.750;2023-02-05T05:51:17;100037.63;;;-0.84;83.21
32875;BME280;40468;42.128;24.750;2023-02-05T05:52:49;100040.19;;;-0.84;83.23
32875;BME280;40468;42.128;24.750;2023-02-05T05:54:21;100047.88;;;-0.84;82.88
32875;BME280;40468;42.128;24.750;2023-02-05T05:55:53;100045.31;;;-0.85;82.93
32875;BME280;40468;42.128;24.750;2023-02-05T05:57:23;100053.81;;;-0.86;82.79
32875;BME280;40468;42.128;24.750;2023-02-05T05:58:55;100052.13;;;-0.87;82.72
32875;BME280;40468;42.128;24.750;2023-02-05T06:00:27;100047.84;;;-0.87;82.58
32875;BME280;40468;42.128;24.750;2023-02-05T06:01:59;100063.25;;;-0.79;82.41
32875;BME280;40468;42.128;24.750;2023-02-05T06:03:31;100059.81;;;-0.81;82.28
32875;BME280;40468;42.128;24.750;2023-02-05T06:05:04;100063.25;;;-0.79;82.01
32875;BME280;40468;42.128;24.750;2023-02-05T06:06:37;100053.00;;;-0.78;82.01
32875;BME280;40468;42.128;24.750;2023-02-05T06:08:09;100059.00;;;-0.76;81.96
32875;BME280;40468;42.128;24.750;2023-02-05T06:09:41;100054.72;;;-0.77;81.78
32875;BME280;40468;42.128;24.750;2023-02-05T06:11:12;100060.72;;;-0.73;81.85
32875;BME280;40468;42.128;24.750;2023-02-05T06:12:44;100056.44;;;-0.73;81.74
32875;BME280;40468;42.128;24.750;2023-02-05T06:14:16;100051.31;;;-0.71;81.62
32875;BME280;40468;42.128;24.750;2023-02-05T06:15:48;100058.16;;;-0.70;81.46
32875;BME280;40468;42.128;24.750;2023-02-05T06:17:20;100061.59;;;-0.66;81.46
32875;BME280;40468;42.128;24.750;2023-02-05T06:18:53;100059.03;;;-0.66;81.37
32875;BME280;40468;42.128;24.750;2023-02-05T06:20:26;100063.28;;;-0.65;81.25
32875;BME280;40468;42.128;24.750;2023-02-05T06:21:59;100066.72;;;-0.65;80.90
32875;BME280;40468;42.128;24.750;2023-02-05T06:23:31;100070.97;;;-0.65;81.02
32875;BME280;40468;42.128;24.750;2023-02-05T06:25:02;100067.56;;;-0.64;80.88
32875;BME280;40468;42.128;24.750;2023-02-05T06:26:35;100075.25;;;-0.64;80.78
32875;BME280;40468;42.128;24.750;2023-02-05T06:28:07;100075.25;;;-0.64;80.78
32875;BME280;40468;42.128;24.750;2023-02-05T06:29:38;100089.75;;;-0.62;80.69
32875;BME280;40468;42.128;24.750;2023-02-05T06:31:09;100084.63;;;-0.60;80.37
32875;BME280;40468;42.128;24.750;2023-02-05T06:32:41;100082.09;;;-0.57;80.50
32875;BME280;40468;42.128;24.750;2023-02-05T06:34:12;100083.78;;;-0.56;80.15
32875;BME280;40468;42.128;24.750;2023-02-05T06:35:45;100087.22;;;-0.56;79.96
32875;BME280;40468;42.128;24.750;2023-02-05T06:37:18;100088.94;;;-0.53;79.76
32875;BME280;40468;42.128;24.750;2023-02-05T06:38:49;100096.63;;;-0.50;79.67
32875;BME280;40468;42.128;24.750;2023-02-05T06:40:21;100096.66;;;-0.47;79.46
32875;BME280;40468;42.128;24.750;2023-02-05T06:41:55;100090.66;;;-0.49;79.32
32875;BME280;40468;42.128;24.750;2023-02-05T06:43:27;100098.34;;;-0.44;79.19
32875;BME280;40468;42.128;24.750;2023-02-05T06:44:58;100106.03;;;-0.41;79.08
32875;BME280;40468;42.128;24.750;2023-02-05T06:46:30;100110.31;;;-0.40;78.71
32875;BME280;40468;42.128;24.750;2023-02-05T06:48:02;100118.00;;;-0.36;78.75
32875;BME280;40468;42.128;24.750;2023-02-05T06:49:33;100120.56;;;-0.34;78.54
32875;BME280;40468;42.128;24.750;2023-02-05T06:51:05;100126.53;;;-0.34;78.41
32875;BME280;40468;42.128;24.750;2023-02-05T06:52:38;100120.56;;;-0.33;78.17
32875;BME280;40468;42.128;24.750;2023-02-05T06:54:10;100139.38;;;-0.29;77.95
32875;BME280;40468;42.128;24.750;2023-02-05T06:55:42;100143.66;;;-0.24;78.06
32875;BME280;40468;42.128;24.750;2023-02-05T06:57:14;100149.63;;;-0.18;77.79
32875;BME280;40468;42.128;24.750;2023-02-05T06:58:46;100150.50;;;-0.13;77.68
32875;BME280;40468;42.128;24.750;2023-02-05T07:00:18;100158.19;;;-0.13;77.32
32875;BME280;40468;42.128;24.750;2023-02-05T07:01:50;100165.88;;;-0.10;77.11
32875;BME280;40468;42.128;24.750;2023-02-05T07:03:22;100171.88;;;-0.08;77.33
32875;BME280;40468;42.128;24.750;2023-02-05T07:04:54;100172.72;;;-0.06;76.95
32875;BME280;40468;42.128;24.750;2023-02-05T07:06:26;100171.03;;;-0.06;76.78
32875;BME280;40468;42.128;24.750;2023-02-05T07:07:59;100170.19;;;-0.05;76.83
32875;BME280;40468;42.128;24.750;2023-02-05T07:09:33;100173.63;;;0.01;76.81
32875;BME280;40468;42.128;24.750;2023-02-05T07:11:05;100180.44;;;0.02;76.60
32875;BME280;40468;42.128;24.750;2023-02-05T07:12:37;100180.47;;;0.03;76.43
32875;BME280;40468;42.128;24.750;2023-02-05T07:14:09;100177.91;;;0.03;76.48
32875;BME280;40468;42.128;24.750;2023-02-05T07:15:40;100191.53;;;0.05;76.37
32875;BME280;40468;42.128;24.750;2023-02-05T07:17:13;100189.81;;;0.06;76.46
32875;BME280;40468;42.128;24.750;2023-02-05T07:18:45;100190.69;;;0.08;76.40
32875;BME280;40468;42.128;24.750;2023-02-05T07:20:17;100196.69;;;0.10;76.58
32875;BME280;40468;42.128;24.750;2023-02-05T07:21:48;100199.25;;;0.11;76.75
32875;BME280;40468;42.128;24.750;2023-02-05T07:23:21;100201.81;;;0.17;76.77
32875;BME280;40468;42.128;24.750;2023-02-05T07:24:53;100189.91;;;0.22;76.67
32875;BME280;40468;42.128;24.750;2023-02-05T07:26:25;100197.59;;;0.26;76.72
32875;BME280;40468;42.128;24.750;2023-02-05T07:27:57;100205.28;;;0.29;76.68
32875;BME280;40468;42.128;24.750;2023-02-05T07:29:28;100196.75;;;0.30;76.56
32875;BME280;40468;42.128;24.750;2023-02-05T07:31:04;100199.34;;;0.33;76.55
32875;BME280;40468;42.128;24.750;2023-02-05T07:32:36;100199.34;;;0.33;76.79
32875;BME280;40468;42.128;24.750;2023-02-05T07:34:08;100196.75;;;0.30;77.10
32875;BME280;40468;42.128;24.750;2023-02-05T07:35:40;100200.16;;;0.29;77.10
32875;BME280;40468;42.128;24.750;2023-02-05T07:37:12;100201.00;;;0.29;77.19
32875;BME280;40468;42.128;24.750;2023-02-05T07:38:46;100201.03;;;0.28;77.34
32875;BME280;40468;42.128;24.750;2023-02-05T07:40:18;100203.56;;;0.21;77.66
32875;BME280;40468;42.128;24.750;2023-02-05T07:41:49;100202.72;;;0.18;77.90
32875;BME280;40468;42.128;24.750;2023-02-05T07:43:22;100203.56;;;0.18;78.05
32875;BME280;40468;42.128;24.750;2023-02-05T07:44:54;100200.13;;;0.22;78.12
32875;BME280;40468;42.128;24.750;2023-02-05T07:46:26;100201.00;;;0.26;77.93
32875;BME280;40468;42.128;24.750;2023-02-05T07:47:57;100202.72;;;0.26;78.12
32875;BME280;40468;42.128;24.750;2023-02-05T07:49:29;100213.81;;;0.26;78.16
32875;BME280;40468;42.128;24.750;2023-02-05T07:51:01;100201.00;;;0.26;78.32
32875;BME280;40468;42.128;24.750;2023-02-05T07:52:33;100200.13;;;0.19;78.30
32875;BME280;40468;42.128;24.750;2023-02-05T07:54:08;100200.97;;;0.20;78.56
32875;BME280;40468;42.128;24.750;2023-02-05T07:55:40;100207.81;;;0.19;78.67
32875;BME280;40468;42.128;24.750;2023-02-05T07:57:12;100206.09;;;0.20;78.86
32875;BME280;40468;42.128;24.750;2023-02-05T07:58:43;100206.13;;;0.21;78.93
32875;BME280;40468;42.128;24.750;2023-02-05T08:00:16;100205.28;;;0.26;78.84
32875;BME280;40468;42.128;24.750;2023-02-05T08:01:47;100204.41;;;0.27;78.86
32875;BME280;40468;42.128;24.750;2023-02-05T08:03:19;100202.72;;;0.29;78.96
32875;BME280;40468;42.128;24.750;2023-02-05T08:04:51;100213.00;;;0.36;79.12
32875;BME280;40468;42.128;24.750;2023-02-05T08:06:23;100207.03;;;0.42;79.32
32875;BME280;40468;42.128;24.750;2023-02-05T08:07:56;100209.63;;;0.57;79.20
32875;BME280;40468;42.128;24.750;2023-02-05T08:09:29;100207.09;;;0.76;79.09
32875;BME280;40468;42.128;24.750;2023-02-05T08:11:02;100199.41;;;0.85;78.75
32875;BME280;40468;42.128;24.750;2023-02-05T08:12:34;100206.28;;;1.07;78.33